sensor_id;sensor_type;location;lat;lon;timestamp;P1;durP1;ratioP1;P2;durP2;ratioP2
12812;SDS011;6471;50.932;6.934;2023-04-03T00:00:30;3.30;;;2.20;;
12812;SDS011;6471;50.932;6.934;2023-04-03T00:02:56;3.53;;;2.40;;
12812;SDS011;6471;50.932;6.934;2023-04-03T00:05:22;4.33;;;2.23;;
12812;SDS011;6471;50.932;6.934;2023-04-03T00:07:48;3.97;;;2.30;;
12812;SDS011;6471;50.932;6.934;2023-04-03T00:10:15;3.43;;;2.20;;
12812;SDS011;6471;50.932;6.934;2023-04-03T00:12:41;5.10;;;2.10;;
12812;SDS011;6471;50.932;6.934;2023-04-03T00:15:07;4.13;;;2.40;;
12812;SDS011;6471;50.932;6.934;2023-04-03T00:17:33;4.83;;;2.23;;
12812;SDS011;6471;50.932;6.934;2023-04-03T00:20:00;8.40;;;2.60;;
12812;SDS011;6471;50.932;6.934;2023-04-03T00:22:26;3.97;;;2.40;;
12812;SDS011;6471;50.932;6.934;2023-04-03T00:24:53;3.40;;;2.30;;
12812;SDS011;6471;50.932;6.934;2023-04-03T00:27:19;3.27;;;2.40;;
12812;SDS011;6471;50.932;6.934;2023-04-03T00:29:45;3.50;;;2.53;;
12812;SDS011;6471;50.932;6.934;2023-04-03T00:32:12;5.07;;;2.50;;
12812;SDS011;6471;50.932;6.934;2023-04-03T00:34:38;3.53;;;2.60;;
12812;SDS011;6471;50.932;6.934;2023-04-03T00:37:04;5.43;;;2.67;;
12812;SDS011;6471;50.932;6.934;2023-04-03T00:39:31;3.07;;;2.40;;
12812;SDS011;6471;50.932;6.934;2023-04-03T00:41:57;4.90;;;2.50;;
12812;SDS011;6471;50.932;6.934;2023-04-03T00:46:58;3.70;;;2.20;;
12812;SDS011;6471;50.932;6.934;2023-04-03T00:49:24;4.00;;;2.50;;
12812;SDS011;6471;50.932;6.934;2023-04-03T00:51:51;3.47;;;1.97;;
12812;SDS011;6471;50.932;6.934;2023-04-03T00:54:19;4.53;;;2.43;;
12812;SDS011;6471;50.932;6.934;2023-04-03T00:56:45;4.57;;;2.50;;
12812;SDS011;6471;50.932;6.934;2023-04-03T00:59:13;3.90;;;2.47;;
12812;SDS011;6471;50.932;6.934;2023-04-03T01:01:39;3.47;;;2.40;;
12812;SDS011;6471;50.932;6.934;2023-04-03T01:04:05;3.17;;;2.40;;
12812;SDS011;6471;50.932;6.934;2023-04-03T01:06:33;3.47;;;2.33;;
12812;SDS011;6471;50.932;6.934;2023-04-03T01:09:00;4.57;;;2.57;;
12812;SDS011;6471;50.932;6.934;2023-04-03T01:11:27;2.97;;;2.43;;
12812;SDS011;6471;50.932;6.934;2023-04-03T01:13:53;3.90;;;2.40;;
12812;SDS011;6471;50.932;6.934;2023-04-03T01:16:19;3.57;;;2.37;;
12812;SDS011;6471;50.932;6.934;2023-04-03T01:18:46;5.33;;;2.40;;
12812;SDS011;6471;50.932;6.934;2023-04-03T01:26:10;2.97;;;2.30;;
12812;SDS011;6471;50.932;6.934;2023-04-03T01:28:40;3.43;;;2.00;;
12812;SDS011;6471;50.932;6.934;2023-04-03T01:31:26;2.53;;;1.83;;
12812;SDS011;6471;50.932;6.934;2023-04-03T01:33:53;2.63;;;2.00;;
12812;SDS011;6471;50.932;6.934;2023-04-03T01:36:21;3.13;;;1.70;;
12812;SDS011;6471;50.932;6.934;2023-04-03T01:38:49;2.90;;;1.90;;
12812;SDS011;6471;50.932;6.934;2023-04-03T01:41:15;3.43;;;2.13;;
12812;SDS011;6471;50.932;6.934;2023-04-03T01:43:41;3.23;;;2.40;;
12812;SDS011;6471;50.932;6.934;2023-04-03T01:46:07;3.43;;;2.03;;
12812;SDS011;6471;50.932;6.934;2023-04-03T01:48:33;2.23;;;2.00;;
12812;SDS011;6471;50.932;6.934;2023-04-03T01:50:59;4.17;;;2.07;;
12812;SDS011;6471;50.932;6.934;2023-04-03T01:53:25;2.33;;;1.73;;
12812;SDS011;6471;50.932;6.934;2023-04-03T01:55:51;4.20;;;2.30;;
12812;SDS011;6471;50.932;6.934;2023-04-03T01:58:17;2.70;;;2.20;;
12812;SDS011;6471;50.932;6.934;2023-04-03T02:00:43;4.10;;;2.77;;
12812;SDS011;6471;50.932;6.934;2023-04-03T02:03:10;2.40;;;2.10;;
12812;SDS011;6471;50.932;6.934;2023-04-03T02:05:36;4.07;;;2.53;;
12812;SDS011;6471;50.932;6.934;2023-04-03T02:08:02;4.53;;;2.60;;
12812;SDS011;6471;50.932;6.934;2023-04-03T02:10:28;3.67;;;2.50;;
12812;SDS011;6471;50.932;6.934;2023-04-03T02:12:55;4.00;;;2.40;;
12812;SDS011;6471;50.932;6.934;2023-04-03T02:15:21;2.57;;;2.37;;
12812;SDS011;6471;50.932;6.934;2023-04-03T02:17:47;4.97;;;2.57;;
12812;SDS011;6471;50.932;6.934;2023-04-03T02:20:13;2.53;;;2.20;;
12812;SDS011;6471;50.932;6.934;2023-04-03T02:22:39;2.87;;;2.40;;
12812;SDS011;6471;50.932;6.934;2023-04-03T02:25:05;3.97;;;2.63;;
12812;SDS011;6471;50.932;6.934;2023-04-03T02:27:31;5.03;;;2.93;;
12812;SDS011;6471;50.932;6.934;2023-04-03T02:29:57;4.63;;;2.57;;
12812;SDS011;6471;50.932;6.934;2023-04-03T02:32:23;4.00;;;2.73;;
12812;SDS011;6471;50.932;6.934;2023-04-03T02:34:50;3.60;;;2.60;;
12812;SDS011;6471;50.932;6.934;2023-04-03T02:37:16;4.67;;;2.90;;
12812;SDS011;6471;50.932;6.934;2023-04-03T02:39:44;3.27;;;2.60;;
12812;SDS011;6471;50.932;6.934;2023-04-03T02:42:10;4.10;;;2.90;;
12812;SDS011;6471;50.932;6.934;2023-04-03T02:44:36;4.70;;;2.80;;
12812;SDS011;6471;50.932;6.934;2023-04-03T02:47:04;4.27;;;2.70;;
12812;SDS011;6471;50.932;6.934;2023-04-03T02:49:30;3.57;;;3.03;;
12812;SDS011;6471;50.932;6.934;2023-04-03T02:51:56;4.87;;;3.10;;
12812;SDS011;6471;50.932;6.934;2023-04-03T02:54:22;5.37;;;2.60;;
12812;SDS011;6471;50.932;6.934;2023-04-03T02:56:52;3.90;;;3.20;;
12812;SDS011;6471;50.932;6.934;2023-04-03T02:59:18;3.93;;;2.90;;
12812;SDS011;6471;50.932;6.934;2023-04-03T03:01:44;4.70;;;3.03;;
12812;SDS011;6471;50.932;6.934;2023-04-03T03:04:10;4.03;;;2.90;;
12812;SDS011;6471;50.932;6.934;2023-04-03T03:06:36;5.87;;;3.00;;
12812;SDS011;6471;50.932;6.934;2023-04-03T03:09:03;4.67;;;3.00;;
12812;SDS011;6471;50.932;6.934;2023-04-03T03:11:29;4.77;;;3.07;;
12812;SDS011;6471;50.932;6.934;2023-04-03T03:13:55;3.67;;;3.10;;
12812;SDS011;6471;50.932;6.934;2023-04-03T03:16:21;3.53;;;2.87;;
12812;SDS011;6471;50.932;6.934;2023-04-03T03:18:47;4.13;;;2.60;;
12812;SDS011;6471;50.932;6.934;2023-04-03T03:21:14;5.57;;;2.90;;
12812;SDS011;6471;50.932;6.934;2023-04-03T03:23:40;4.23;;;2.90;;
12812;SDS011;6471;50.932;6.934;2023-04-03T03:26:07;4.97;;;3.17;;
12812;SDS011;6471;50.932;6.934;2023-04-03T03:28:34;3.03;;;2.70;;
12812;SDS011;6471;50.932;6.934;2023-04-03T03:31:02;4.03;;;2.60;;
12812;SDS011;6471;50.932;6.934;2023-04-03T03:33:28;2.63;;;2.30;;
12812;SDS011;6471;50.932;6.934;2023-04-03T03:35:54;3.97;;;2.53;;
12812;SDS011;6471;50.932;6.934;2023-04-03T03:38:20;5.73;;;2.57;;
12812;SDS011;6471;50.932;6.934;2023-04-03T03:40:47;4.37;;;2.70;;
12812;SDS011;6471;50.932;6.934;2023-04-03T03:43:13;6.63;;;2.90;;
12812;SDS011;6471;50.932;6.934;2023-04-03T03:45:40;2.87;;;2.30;;
12812;SDS011;6471;50.932;6.934;2023-04-03T03:48:07;3.63;;;2.57;;
12812;SDS011;6471;50.932;6.934;2023-04-03T03:50:33;3.77;;;2.60;;
12812;SDS011;6471;50.932;6.934;2023-04-03T03:52:59;3.73;;;2.43;;
12812;SDS011;6471;50.932;6.934;2023-04-03T03:55:25;3.23;;;2.60;;
12812;SDS011;6471;50.932;6.934;2023-04-03T03:57:52;4.17;;;2.50;;
12812;SDS011;6471;50.932;6.934;2023-04-03T04:00:18;2.40;;;2.20;;
12812;SDS011;6471;50.932;6.934;2023-04-03T04:02:47;4.33;;;2.23;;
12812;SDS011;6471;50.932;6.934;2023-04-03T04:05:13;4.17;;;2.53;;
12812;SDS011;6471;50.932;6.934;2023-04-03T04:07:39;4.17;;;2.53;;
12812;SDS011;6471;50.932;6.934;2023-04-03T04:10:08;5.73;;;2.43;;
12812;SDS011;6471;50.932;6.934;2023-04-03T04:12:34;3.40;;;2.33;;
12812;SDS011;6471;50.932;6.934;2023-04-03T04:15:01;5.77;;;2.70;;
12812;SDS011;6471;50.932;6.934;2023-04-03T04:17:29;3.77;;;2.60;;
12812;SDS011;6471;50.932;6.934;2023-04-03T04:19:55;3.50;;;2.77;;
12812;SDS011;6471;50.932;6.934;2023-04-03T04:22:21;2.80;;;2.20;;
12812;SDS011;6471;50.932;6.934;2023-04-03T04:24:58;3.77;;;2.30;;
12812;SDS011;6471;50.932;6.934;2023-04-03T04:27:26;4.83;;;2.40;;
12812;SDS011;6471;50.932;6.934;2023-04-03T04:29:53;4.23;;;2.30;;
12812;SDS011;6471;50.932;6.934;2023-04-03T04:32:19;3.10;;;2.10;;
12812;SDS011;6471;50.932;6.934;2023-04-03T04:34:45;5.53;;;2.40;;
12812;SDS011;6471;50.932;6.934;2023-04-03T04:37:11;5.50;;;2.40;;
12812;SDS011;6471;50.932;6.934;2023-04-03T04:39:37;3.03;;;2.20;;
12812;SDS011;6471;50.932;6.934;2023-04-03T04:42:03;4.77;;;2.23;;
12812;SDS011;6471;50.932;6.934;2023-04-03T04:44:34;2.90;;;2.20;;
12812;SDS011;6471;50.932;6.934;2023-04-03T04:47:00;3.13;;;2.30;;
12812;SDS011;6471;50.932;6.934;2023-04-03T04:49:26;4.07;;;2.40;;
12812;SDS011;6471;50.932;6.934;2023-04-03T04:51:58;4.57;;;2.20;;
12812;SDS011;6471;50.932;6.934;2023-04-03T04:54:24;2.93;;;2.00;;
12812;SDS011;6471;50.932;6.934;2023-04-03T04:56:50;4.93;;;2.30;;
12812;SDS011;6471;50.932;6.934;2023-04-03T04:59:16;2.90;;;2.00;;
12812;SDS011;6471;50.932;6.934;2023-04-03T05:01:51;2.57;;;2.10;;
12812;SDS011;6471;50.932;6.934;2023-04-03T05:04:17;3.10;;;2.10;;
12812;SDS011;6471;50.932;6.934;2023-04-03T05:06:43;5.63;;;2.23;;
12812;SDS011;6471;50.932;6.934;2023-04-03T05:09:09;3.80;;;2.40;;
12812;SDS011;6471;50.932;6.934;2023-04-03T05:11:35;3.83;;;2.40;;
12812;SDS011;6471;50.932;6.934;2023-04-03T05:14:01;3.27;;;2.07;;
12812;SDS011;6471;50.932;6.934;2023-04-03T05:16:30;3.70;;;2.13;;
12812;SDS011;6471;50.932;6.934;2023-04-03T05:18:56;3.50;;;2.03;;
12812;SDS011;6471;50.932;6.934;2023-04-03T05:21:22;3.17;;;2.00;;
12812;SDS011;6471;50.932;6.934;2023-04-03T05:23:49;3.17;;;2.20;;
12812;SDS011;6471;50.932;6.934;2023-04-03T05:26:16;5.30;;;2.07;;
12812;SDS011;6471;50.932;6.934;2023-04-03T05:28:42;3.77;;;2.50;;
12812;SDS011;6471;50.932;6.934;2023-04-03T05:31:08;3.33;;;1.90;;
12812;SDS011;6471;50.932;6.934;2023-04-03T05:33:34;3.60;;;2.13;;
12812;SDS011;6471;50.932;6.934;2023-04-03T05:36:03;3.23;;;1.90;;
12812;SDS011;6471;50.932;6.934;2023-04-03T05:38:33;3.87;;;2.30;;
12812;SDS011;6471;50.932;6.934;2023-04-03T05:40:59;2.13;;;1.80;;
12812;SDS011;6471;50.932;6.934;2023-04-03T05:43:25;5.80;;;2.23;;
12812;SDS011;6471;50.932;6.934;2023-04-03T05:45:51;4.53;;;2.10;;
12812;SDS011;6471;50.932;6.934;2023-04-03T05:48:17;4.90;;;2.33;;
12812;SDS011;6471;50.932;6.934;2023-04-03T05:50:44;2.27;;;1.87;;
12812;SDS011;6471;50.932;6.934;2023-04-03T05:53:13;4.27;;;1.80;;
12812;SDS011;6471;50.932;6.934;2023-04-03T05:55:40;3.27;;;1.80;;
12812;SDS011;6471;50.932;6.934;2023-04-03T05:58:06;3.27;;;1.90;;
12812;SDS011;6471;50.932;6.934;2023-04-03T06:00:32;2.17;;;1.60;;
12812;SDS011;6471;50.932;6.934;2023-04-03T06:02:59;2.63;;;1.73;;
12812;SDS011;6471;50.932;6.934;2023-04-03T06:05:25;5.17;;;1.90;;
12812;SDS011;6471;50.932;6.934;2023-04-03T06:07:51;3.93;;;1.83;;
12812;SDS011;6471;50.932;6.934;2023-04-03T06:10:17;3.53;;;1.83;;
12812;SDS011;6471;50.932;6.934;2023-04-03T06:12:45;6.00;;;1.80;;
12812;SDS011;6471;50.932;6.934;2023-04-03T06:15:11;3.10;;;1.63;;
12812;SDS011;6471;50.932;6.934;2023-04-03T06:17:37;6.57;;;2.00;;
12812;SDS011;6471;50.932;6.934;2023-04-03T06:20:03;3.53;;;1.80;;
12812;SDS011;6471;50.932;6.934;2023-04-03T06:22:31;3.83;;;1.90;;
12812;SDS011;6471;50.932;6.934;2023-04-03T06:25:26;4.77;;;2.20;;
12812;SDS011;6471;50.932;6.934;2023-04-03T06:28:04;4.27;;;2.00;;
12812;SDS011;6471;50.932;6.934;2023-04-03T06:33:15;6.47;;;2.17;;
12812;SDS011;6471;50.932;6.934;2023-04-03T06:35:42;3.60;;;1.93;;
12812;SDS011;6471;50.932;6.934;2023-04-03T06:48:36;3.47;;;1.73;;
12812;SDS011;6471;50.932;6.934;2023-04-03T06:51:06;5.37;;;2.10;;
12812;SDS011;6471;50.932;6.934;2023-04-03T06:53:35;2.50;;;1.60;;
12812;SDS011;6471;50.932;6.934;2023-04-03T06:56:08;3.20;;;1.83;;
12812;SDS011;6471;50.932;6.934;2023-04-03T06:58:34;2.63;;;1.80;;
12812;SDS011;6471;50.932;6.934;2023-04-03T07:01:01;4.13;;;2.03;;
12812;SDS011;6471;50.932;6.934;2023-04-03T07:03:27;4.10;;;1.80;;
12812;SDS011;6471;50.932;6.934;2023-04-03T07:05:53;2.60;;;1.70;;
12812;SDS011;6471;50.932;6.934;2023-04-03T07:08:20;2.60;;;1.63;;
12812;SDS011;6471;50.932;6.934;2023-04-03T07:10:48;2.33;;;1.80;;
12812;SDS011;6471;50.932;6.934;2023-04-03T07:13:15;2.90;;;1.77;;
12812;SDS011;6471;50.932;6.934;2023-04-03T07:15:41;3.87;;;1.77;;
12812;SDS011;6471;50.932;6.934;2023-04-03T07:18:07;5.33;;;2.13;;
12812;SDS011;6471;50.932;6.934;2023-04-03T07:20:33;3.90;;;1.70;;
12812;SDS011;6471;50.932;6.934;2023-04-03T07:22:59;3.73;;;1.83;;
12812;SDS011;6471;50.932;6.934;2023-04-03T07:25:27;4.57;;;1.90;;
12812;SDS011;6471;50.932;6.934;2023-04-03T07:27:56;3.43;;;2.00;;
12812;SDS011;6471;50.932;6.934;2023-04-03T07:30:22;3.10;;;1.57;;
12812;SDS011;6471;50.932;6.934;2023-04-03T07:32:50;4.13;;;1.90;;
12812;SDS011;6471;50.932;6.934;2023-04-03T07:35:17;6.27;;;1.90;;
12812;SDS011;6471;50.932;6.934;2023-04-03T07:37:44;3.53;;;1.63;;
12812;SDS011;6471;50.932;6.934;2023-04-03T07:43:03;3.03;;;1.77;;
12812;SDS011;6471;50.932;6.934;2023-04-03T07:45:34;4.50;;;1.97;;
12812;SDS011;6471;50.932;6.934;2023-04-03T07:48:00;2.77;;;1.43;;
12812;SDS011;6471;50.932;6.934;2023-04-03T07:50:27;6.47;;;1.80;;
12812;SDS011;6471;50.932;6.934;2023-04-03T07:52:55;2.87;;;1.60;;
12812;SDS011;6471;50.932;6.934;2023-04-03T07:55:22;2.33;;;1.57;;
12812;SDS011;6471;50.932;6.934;2023-04-03T07:57:48;3.47;;;1.70;;
12812;SDS011;6471;50.932;6.934;2023-04-03T08:00:15;2.30;;;1.50;;
12812;SDS011;6471;50.932;6.934;2023-04-03T08:05:43;3.80;;;1.77;;
12812;SDS011;6471;50.932;6.934;2023-04-03T08:08:24;2.50;;;1.70;;
12812;SDS011;6471;50.932;6.934;2023-04-03T08:10:52;5.00;;;1.70;;
12812;SDS011;6471;50.932;6.934;2023-04-03T08:13:18;3.77;;;1.83;;
12812;SDS011;6471;50.932;6.934;2023-04-03T08:15:45;3.17;;;1.70;;
12812;SDS011;6471;50.932;6.934;2023-04-03T08:18:11;4.93;;;1.70;;
12812;SDS011;6471;50.932;6.934;2023-04-03T08:23:41;3.10;;;1.60;;
12812;SDS011;6471;50.932;6.934;2023-04-03T08:26:13;3.57;;;1.93;;
12812;SDS011;6471;50.932;6.934;2023-04-03T08:28:40;3.37;;;1.40;;
12812;SDS011;6471;50.932;6.934;2023-04-03T08:31:16;3.83;;;1.50;;
12812;SDS011;6471;50.932;6.934;2023-04-03T08:33:43;4.20;;;1.40;;
12812;SDS011;6471;50.932;6.934;2023-04-03T08:36:19;1.97;;;1.40;;
12812;SDS011;6471;50.932;6.934;2023-04-03T08:38:46;2.40;;;1.30;;
12812;SDS011;6471;50.932;6.934;2023-04-03T08:43:47;2.63;;;1.30;;
12812;SDS011;6471;50.932;6.934;2023-04-03T08:46:19;3.80;;;1.47;;
12812;SDS011;6471;50.932;6.934;2023-04-03T08:48:47;3.00;;;1.40;;
12812;SDS011;6471;50.932;6.934;2023-04-03T08:57:53;3.63;;;1.40;;
12812;SDS011;6471;50.932;6.934;2023-04-03T09:00:45;2.90;;;1.43;;
12812;SDS011;6471;50.932;6.934;2023-04-03T09:03:20;2.50;;;1.30;;
12812;SDS011;6471;50.932;6.934;2023-04-03T09:06:03;2.97;;;1.60;;
12812;SDS011;6471;50.932;6.934;2023-04-03T09:08:40;2.40;;;1.40;;
12812;SDS011;6471;50.932;6.934;2023-04-03T09:13:57;2.50;;;1.50;;
12812;SDS011;6471;50.932;6.934;2023-04-03T09:16:39;2.87;;;1.40;;
12812;SDS011;6471;50.932;6.934;2023-04-03T09:19:15;5.30;;;1.43;;
12812;SDS011;6471;50.932;6.934;2023-04-03T09:21:57;2.50;;;1.40;;
12812;SDS011;6471;50.932;6.934;2023-04-03T09:24:23;2.97;;;1.50;;
12812;SDS011;6471;50.932;6.934;2023-04-03T09:27:10;2.83;;;1.40;;
12812;SDS011;6471;50.932;6.934;2023-04-03T09:29:42;1.90;;;1.43;;
12812;SDS011;6471;50.932;6.934;2023-04-03T09:34:46;3.27;;;1.33;;
12812;SDS011;6471;50.932;6.934;2023-04-03T09:37:17;4.00;;;1.60;;
12812;SDS011;6471;50.932;6.934;2023-04-03T09:39:58;3.50;;;1.50;;
12812;SDS011;6471;50.932;6.934;2023-04-03T09:42:28;2.93;;;1.40;;
12812;SDS011;6471;50.932;6.934;2023-04-03T09:45:03;4.33;;;1.57;;
12812;SDS011;6471;50.932;6.934;2023-04-03T09:47:34;2.57;;;1.30;;
12812;SDS011;6471;50.932;6.934;2023-04-03T09:52:52;2.57;;;1.60;;
12812;SDS011;6471;50.932;6.934;2023-04-03T09:55:22;2.43;;;1.30;;
12812;SDS011;6471;50.932;6.934;2023-04-03T09:57:56;2.60;;;1.37;;
12812;SDS011;6471;50.932;6.934;2023-04-03T10:00:25;2.43;;;1.17;;
12812;SDS011;6471;50.932;6.934;2023-04-03T10:02:55;2.60;;;1.10;;
12812;SDS011;6471;50.932;6.934;2023-04-03T10:05:38;1.73;;;1.00;;
12812;SDS011;6471;50.932;6.934;2023-04-03T10:10:46;2.67;;;1.37;;
12812;SDS011;6471;50.932;6.934;2023-04-03T10:13:17;3.27;;;1.60;;
12812;SDS011;6471;50.932;6.934;2023-04-03T10:15:55;1.27;;;1.07;;
12812;SDS011;6471;50.932;6.934;2023-04-03T10:18:27;1.73;;;1.23;;
12812;SDS011;6471;50.932;6.934;2023-04-03T10:20:59;2.20;;;1.30;;
12812;SDS011;6471;50.932;6.934;2023-04-03T10:23:31;2.03;;;1.20;;
12812;SDS011;6471;50.932;6.934;2023-04-03T10:26:21;1.80;;;1.20;;
12812;SDS011;6471;50.932;6.934;2023-04-03T10:28:48;2.07;;;1.30;;
12812;SDS011;6471;50.932;6.934;2023-04-03T10:31:21;2.83;;;1.10;;
12812;SDS011;6471;50.932;6.934;2023-04-03T10:39:25;2.60;;;1.80;;
12812;SDS011;6471;50.932;6.934;2023-04-03T10:42:07;4.03;;;2.10;;
12812;SDS011;6471;50.932;6.934;2023-04-03T10:47:13;2.90;;;1.40;;
12812;SDS011;6471;50.932;6.934;2023-04-03T10:49:49;2.97;;;1.30;;
12812;SDS011;6471;50.932;6.934;2023-04-03T10:52:22;2.47;;;1.20;;
12812;SDS011;6471;50.932;6.934;2023-04-03T10:57:22;2.10;;;1.23;;
12812;SDS011;6471;50.932;6.934;2023-04-03T11:00:01;2.90;;;1.30;;
12812;SDS011;6471;50.932;6.934;2023-04-03T11:02:30;3.17;;;1.47;;
12812;SDS011;6471;50.932;6.934;2023-04-03T11:05:08;2.83;;;1.50;;
12812;SDS011;6471;50.932;6.934;2023-04-03T11:07:48;1.93;;;1.30;;
12812;SDS011;6471;50.932;6.934;2023-04-03T11:12:46;3.23;;;1.90;;
12812;SDS011;6471;50.932;6.934;2023-04-03T11:15:15;3.43;;;1.67;;
12812;SDS011;6471;50.932;6.934;2023-04-03T11:17:46;2.20;;;1.40;;
12812;SDS011;6471;50.932;6.934;2023-04-03T11:22:43;3.10;;;1.60;;
12812;SDS011;6471;50.932;6.934;2023-04-03T11:27:43;2.03;;;1.10;;
12812;SDS011;6471;50.932;6.934;2023-04-03T11:30:25;3.13;;;1.30;;
12812;SDS011;6471;50.932;6.934;2023-04-03T11:35:24;2.00;;;1.30;;
12812;SDS011;6471;50.932;6.934;2023-04-03T11:37:52;2.63;;;1.20;;
12812;SDS011;6471;50.932;6.934;2023-04-03T11:40:23;2.63;;;1.00;;
12812;SDS011;6471;50.932;6.934;2023-04-03T11:45:35;1.40;;;1.20;;
12812;SDS011;6471;50.932;6.934;2023-04-03T11:50:47;2.33;;;1.27;;
12812;SDS011;6471;50.932;6.934;2023-04-03T11:56:36;2.43;;;1.20;;
12812;SDS011;6471;50.932;6.934;2023-04-03T12:04:23;2.60;;;1.40;;
12812;SDS011;6471;50.932;6.934;2023-04-03T12:07:11;1.77;;;1.00;;
12812;SDS011;6471;50.932;6.934;2023-04-03T12:10:00;2.57;;;1.30;;
12812;SDS011;6471;50.932;6.934;2023-04-03T12:12:28;1.87;;;1.40;;
12812;SDS011;6471;50.932;6.934;2023-04-03T12:14:55;2.97;;;1.20;;
12812;SDS011;6471;50.932;6.934;2023-04-03T12:17:26;1.93;;;1.10;;
12812;SDS011;6471;50.932;6.934;2023-04-03T12:20:05;2.17;;;1.10;;
12812;SDS011;6471;50.932;6.934;2023-04-03T12:28:38;2.53;;;1.10;;
12812;SDS011;6471;50.932;6.934;2023-04-03T12:31:15;1.83;;;0.93;;
12812;SDS011;6471;50.932;6.934;2023-04-03T12:36:42;4.90;;;1.30;;
12812;SDS011;6471;50.932;6.934;2023-04-03T12:39:14;1.97;;;1.17;;
12812;SDS011;6471;50.932;6.934;2023-04-03T12:44:38;2.50;;;1.20;;
12812;SDS011;6471;50.932;6.934;2023-04-03T12:47:31;2.60;;;1.50;;
12812;SDS011;6471;50.932;6.934;2023-04-03T12:53:58;2.33;;;1.43;;
12812;SDS011;6471;50.932;6.934;2023-04-03T12:56:22;1.40;;;1.00;;
12812;SDS011;6471;50.932;6.934;2023-04-03T13:01:30;1.83;;;1.20;;
12812;SDS011;6471;50.932;6.934;2023-04-03T13:03:58;2.10;;;1.20;;
12812;SDS011;6471;50.932;6.934;2023-04-03T13:06:30;1.40;;;1.00;;
12812;SDS011;6471;50.932;6.934;2023-04-03T13:09:03;3.00;;;1.40;;
12812;SDS011;6471;50.932;6.934;2023-04-03T13:11:31;1.60;;;1.23;;
12812;SDS011;6471;50.932;6.934;2023-04-03T13:19:49;2.13;;;1.30;;
12812;SDS011;6471;50.932;6.934;2023-04-03T13:25:27;1.37;;;0.87;;
12812;SDS011;6471;50.932;6.934;2023-04-03T13:27:57;2.83;;;1.30;;
12812;SDS011;6471;50.932;6.934;2023-04-03T13:30:34;1.63;;;1.20;;
12812;SDS011;6471;50.932;6.934;2023-04-03T13:33:05;2.53;;;1.20;;
12812;SDS011;6471;50.932;6.934;2023-04-03T13:35:41;3.00;;;1.40;;
12812;SDS011;6471;50.932;6.934;2023-04-03T13:38:28;2.20;;;1.00;;
12812;SDS011;6471;50.932;6.934;2023-04-03T13:41:02;2.00;;;1.13;;
12812;SDS011;6471;50.932;6.934;2023-04-03T13:43:35;2.17;;;1.40;;
12812;SDS011;6471;50.932;6.934;2023-04-03T13:48:50;1.73;;;1.27;;
12812;SDS011;6471;50.932;6.934;2023-04-03T13:51:17;1.27;;;1.07;;
12812;SDS011;6471;50.932;6.934;2023-04-03T13:53:46;2.50;;;1.20;;
12812;SDS011;6471;50.932;6.934;2023-04-03T13:56:21;6.73;;;1.70;;
12812;SDS011;6471;50.932;6.934;2023-04-03T13:59:32;2.83;;;1.10;;
12812;SDS011;6471;50.932;6.934;2023-04-03T14:01:52;2.77;;;1.40;;
12812;SDS011;6471;50.932;6.934;2023-04-03T14:04:31;1.87;;;1.20;;
12812;SDS011;6471;50.932;6.934;2023-04-03T14:10:22;1.43;;;1.10;;
12812;SDS011;6471;50.932;6.934;2023-04-03T14:12:48;1.67;;;1.20;;
12812;SDS011;6471;50.932;6.934;2023-04-03T14:17:45;1.93;;;1.23;;
12812;SDS011;6471;50.932;6.934;2023-04-03T14:20:18;2.10;;;1.30;;
12812;SDS011;6471;50.932;6.934;2023-04-03T14:22:48;2.53;;;1.30;;
12812;SDS011;6471;50.932;6.934;2023-04-03T14:25:26;2.60;;;1.20;;
12812;SDS011;6471;50.932;6.934;2023-04-03T14:27:55;2.10;;;1.43;;
12812;SDS011;6471;50.932;6.934;2023-04-03T14:30:29;3.17;;;1.40;;
12812;SDS011;6471;50.932;6.934;2023-04-03T14:32:59;2.17;;;1.40;;
12812;SDS011;6471;50.932;6.934;2023-04-03T14:35:28;2.40;;;1.43;;
12812;SDS011;6471;50.932;6.934;2023-04-03T14:38:24;2.80;;;1.37;;
12812;SDS011;6471;50.932;6.934;2023-04-03T14:40:52;1.50;;;1.30;;
12812;SDS011;6471;50.932;6.934;2023-04-03T14:43:24;3.10;;;1.77;;
12812;SDS011;6471;50.932;6.934;2023-04-03T14:45:57;2.17;;;1.60;;
12812;SDS011;6471;50.932;6.934;2023-04-03T14:48:30;1.97;;;1.50;;
12812;SDS011;6471;50.932;6.934;2023-04-03T14:51:17;2.70;;;1.60;;
12812;SDS011;6471;50.932;6.934;2023-04-03T14:53:43;2.73;;;1.37;;
12812;SDS011;6471;50.932;6.934;2023-04-03T14:56:21;3.97;;;1.70;;
12812;SDS011;6471;50.932;6.934;2023-04-03T14:58:49;3.57;;;1.50;;
12812;SDS011;6471;50.932;6.934;2023-04-03T15:01:16;1.80;;;1.40;;
12812;SDS011;6471;50.932;6.934;2023-04-03T15:03:45;2.30;;;1.27;;
12812;SDS011;6471;50.932;6.934;2023-04-03T15:06:15;4.50;;;1.50;;
12812;SDS011;6471;50.932;6.934;2023-04-03T15:08:42;3.70;;;1.73;;
12812;SDS011;6471;50.932;6.934;2023-04-03T15:11:23;2.50;;;1.40;;
12812;SDS011;6471;50.932;6.934;2023-04-03T15:14:01;3.20;;;1.50;;
12812;SDS011;6471;50.932;6.934;2023-04-03T15:16:33;1.83;;;1.23;;
12812;SDS011;6471;50.932;6.934;2023-04-03T15:19:02;2.20;;;1.30;;
12812;SDS011;6471;50.932;6.934;2023-04-03T15:21:29;3.07;;;1.40;;
12812;SDS011;6471;50.932;6.934;2023-04-03T15:23:58;2.27;;;1.30;;
12812;SDS011;6471;50.932;6.934;2023-04-03T15:26:32;2.27;;;1.47;;
12812;SDS011;6471;50.932;6.934;2023-04-03T15:28:58;1.90;;;1.40;;
12812;SDS011;6471;50.932;6.934;2023-04-03T15:31:25;2.00;;;1.20;;
12812;SDS011;6471;50.932;6.934;2023-04-03T15:33:53;2.63;;;1.70;;
12812;SDS011;6471;50.932;6.934;2023-04-03T15:36:23;2.33;;;1.67;;
12812;SDS011;6471;50.932;6.934;2023-04-03T15:38:49;2.80;;;1.37;;
12812;SDS011;6471;50.932;6.934;2023-04-03T15:41:15;1.60;;;1.20;;
12812;SDS011;6471;50.932;6.934;2023-04-03T15:43:41;1.87;;;1.20;;
12812;SDS011;6471;50.932;6.934;2023-04-03T15:46:07;1.77;;;1.20;;
12812;SDS011;6471;50.932;6.934;2023-04-03T15:48:40;2.30;;;1.33;;
12812;SDS011;6471;50.932;6.934;2023-04-03T15:51:09;2.47;;;1.30;;
12812;SDS011;6471;50.932;6.934;2023-04-03T15:53:35;1.70;;;1.30;;
12812;SDS011;6471;50.932;6.934;2023-04-03T15:56:01;2.73;;;1.30;;
12812;SDS011;6471;50.932;6.934;2023-04-03T15:58:29;3.27;;;1.53;;
12812;SDS011;6471;50.932;6.934;2023-04-03T16:00:55;2.23;;;1.50;;
12812;SDS011;6471;50.932;6.934;2023-04-03T16:03:21;2.53;;;1.90;;
12812;SDS011;6471;50.932;6.934;2023-04-03T16:05:49;3.07;;;1.60;;
12812;SDS011;6471;50.932;6.934;2023-04-03T16:08:15;2.60;;;1.47;;
12812;SDS011;6471;50.932;6.934;2023-04-03T16:10:45;2.13;;;1.10;;
12812;SDS011;6471;50.932;6.934;2023-04-03T16:13:12;3.33;;;1.30;;
12812;SDS011;6471;50.932;6.934;2023-04-03T16:15:38;4.00;;;1.70;;
12812;SDS011;6471;50.932;6.934;2023-04-03T16:18:05;3.97;;;1.50;;
12812;SDS011;6471;50.932;6.934;2023-04-03T16:20:31;2.93;;;1.50;;
12812;SDS011;6471;50.932;6.934;2023-04-03T16:22:57;2.33;;;1.40;;
12812;SDS011;6471;50.932;6.934;2023-04-03T16:25:25;2.87;;;1.40;;
12812;SDS011;6471;50.932;6.934;2023-04-03T16:27:51;2.33;;;1.40;;
12812;SDS011;6471;50.932;6.934;2023-04-03T16:30:17;2.23;;;1.43;;
12812;SDS011;6471;50.932;6.934;2023-04-03T16:32:44;2.83;;;1.40;;
12812;SDS011;6471;50.932;6.934;2023-04-03T16:35:10;2.60;;;1.73;;
12812;SDS011;6471;50.932;6.934;2023-04-03T16:37:37;2.90;;;1.30;;
12812;SDS011;6471;50.932;6.934;2023-04-03T16:42:51;3.03;;;1.40;;
12812;SDS011;6471;50.932;6.934;2023-04-03T16:45:17;2.17;;;1.50;;
12812;SDS011;6471;50.932;6.934;2023-04-03T16:47:43;3.00;;;1.27;;
12812;SDS011;6471;50.932;6.934;2023-04-03T16:50:09;2.60;;;1.40;;
12812;SDS011;6471;50.932;6.934;2023-04-03T16:52:35;2.83;;;1.40;;
12812;SDS011;6471;50.932;6.934;2023-04-03T16:55:02;2.73;;;1.73;;
12812;SDS011;6471;50.932;6.934;2023-04-03T16:57:28;2.07;;;1.40;;
12812;SDS011;6471;50.932;6.934;2023-04-03T16:59:54;2.53;;;1.50;;
12812;SDS011;6471;50.932;6.934;2023-04-03T17:02:21;2.30;;;1.70;;
12812;SDS011;6471;50.932;6.934;2023-04-03T17:04:55;5.33;;;2.30;;
12812;SDS011;6471;50.932;6.934;2023-04-03T17:07:22;1.77;;;1.47;;
12812;SDS011;6471;50.932;6.934;2023-04-03T17:09:49;2.50;;;1.37;;
12812;SDS011;6471;50.932;6.934;2023-04-03T17:12:15;3.47;;;1.50;;
12812;SDS011;6471;50.932;6.934;2023-04-03T17:14:42;3.00;;;1.50;;